Al Diriyah — HZAD — position and weather

sailwx.info

Track history (hours):
 
Tides and Currents Weather Stations Pressure Air Temp Water Temp Dewpoint Dewpoint Depression Visibility Wind Speed Wind Dir Waves Ship Positions

Al Diriyah

Last reported at 2016-Nov-23 00:16 UTC. Time now 2016-Dec-07 10:36 UTC.
Position N 37°39' E 023°44'.
Warning: this ship's position is 14 days out of date.

Length 80 m; draft 5 m.

Type: Pleasure craft. MMSI: 403005000.

Date/timePositionNaut miles runAvg speedWind from/ knotsBaromVisibWave heightAir tempDewpointWater temp
2016-Nov-23 00:16N 37°39' E 023°44'913.4
2016-Nov-22 23:34N 37°46' E 023°35'1413.5
2016-Nov-22 22:33N 37°51' E 023°19'36511.4
2016-Nov-21 14:33N 37°59' E 015°36'1312.6
2016-Nov-21 13:33N 38°12' E 015°36'8 8.1
2016-Nov-21 12:33N 38°19' E 015°32'1313.3
2016-Nov-21 11:33N 38°19' E 015°15'1413.6
2016-Nov-21 10:33N 38°19' E 014°57'6613.3
2016-Nov-21 05:33N 38°18' E 013°33'1313.1
2016-Nov-21 04:33N 38°18' E 013°16'54413.1
2016-Nov-19 11:09N 38°52' E 001°42'  
Track history (hours):
 
Tides and Currents Weather Stations Pressure Air Temp Water Temp Dewpoint Dewpoint Depression Visibility Wind Speed Wind Dir Waves Ship Positions

Al Diriyah

Last reported at 2016-Nov-23 00:16 UTC. Time now 2016-Dec-07 10:36 UTC.
Position N 37°39' E 023°44'.
Warning: this ship's position is 14 days out of date.

Length 80 m; draft 5 m.

Type: Pleasure craft. MMSI: 403005000.

Date/timePositionNaut miles runAvg speedWind from/ knotsBaromVisibWave heightAir tempDewpointWater temp
2016-Nov-23 00:16N 37°39' E 023°44'913.4
2016-Nov-22 23:34N 37°46' E 023°35'1413.5
2016-Nov-22 22:33N 37°51' E 023°19'36511.4
2016-Nov-21 14:33N 37°59' E 015°36'1312.6
2016-Nov-21 13:33N 38°12' E 015°36'8 8.1
2016-Nov-21 12:33N 38°19' E 015°32'1313.3
2016-Nov-21 11:33N 38°19' E 015°15'1413.6
2016-Nov-21 10:33N 38°19' E 014°57'6613.3
2016-Nov-21 05:33N 38°18' E 013°33'1313.1
2016-Nov-21 04:33N 38°18' E 013°16'54413.1
2016-Nov-19 11:09N 38°52' E 001°42'  

Dump ship's entire track history